Reese River Valley, Nevada Weather observations

Data are for 10 minute period ending at time listed.
 Day   Time   Solar   Ave.   Ave.  Ave.  Vector  Max.   Baro.   Total    
  of    of     Rad.   Air    Rel.  Wind   Wind   Wind  Press.  Precip.   
Year   Day            Temp.  Hum.  Speed  Dir.   Gust                    
2017   (PST)  Kw/m2    F      %     mph   deg.    mph    mb.     in.     
-------------------------------------------------------------------------
 325    9:30   0.44   54.3    65    8.8   249    10.6   823.4    0.00 
 325    9:40   0.40   55.1    64    8.1   239     9.9   823.4    0.00 
 325    9:50   0.23   54.7    65    8.5   237    10.7   823.5    0.00 
 325   10:00   0.24   54.6    65    8.5   242    10.7   823.7    0.00 
 325   10:10   0.20   54.9    64    8.3   247     9.7   823.9    0.00 
 325   10:20   0.18   55.0    63    7.3   240     9.3   823.8    0.00 
 325   10:30   0.20   55.5    61    5.4   233     7.5   823.8    0.00 
 325   10:40   0.27   56.3    58    4.7   235     5.6   823.7    0.00 
 325   10:50   0.28   57.2    54    5.0   241     6.2   823.8    0.00 
 325   11:00   0.29   57.7    52    4.3   241     6.9   823.7    0.00 
 325   11:10   0.37   58.6    47    2.6   249     4.0   823.6    0.00 
 325   11:20   0.50   60.4    40    0.9   266     2.6   823.4    0.00 
 325   11:30   0.49   60.5    40    2.4   280     3.4   823.3    0.00 
 325   11:40   0.49   60.1    39    2.6   323     3.9   823.3    0.00 
 325   11:50   0.47   60.4    37    2.4   281     4.2   823.2    0.00 
 325   12:00   0.43   61.0    36    1.9   299     3.7   823.2    0.00 
 325   12:10   0.28   60.5    36    2.2   307     4.2   823.3    0.00 
 325   12:20   0.36   60.9    35    1.7    42     3.4   823.2    0.00 
 325   12:30   0.33   61.6    35    2.3   101     4.8   823.2    0.00 
 325   12:40   0.46   61.7    34    2.2    42     5.0   823.1    0.00 
 325   12:50   0.47   62.4    34    2.6    51     4.5   823.0    0.00 
 325   13:00   0.30   62.0    34    2.2    71     4.1   823.0    0.00 
 325   13:10   0.50   62.8    34    4.3   124     8.4   822.9    0.00 
 325   13:20   0.43   62.9    34    5.1    74     7.6   822.7    0.00 
 325   13:30   0.40   63.0    33    2.4    52     6.2   822.7    0.00 
 325   13:40   0.42   63.4    33    4.3    57     7.8   822.5    0.00 
 325   13:50   0.41   63.8    33    4.8    62     8.4   822.5    0.00 
 325   14:00   0.41   63.7    33    4.2    35     7.6   822.5    0.00 
 325   14:10   0.37   64.4    32    2.2    57     4.7   822.4    0.00 
 325   14:20   0.34   64.4    32    2.4    47     6.1   822.4    0.00 
 325   14:30   0.25   64.2    32    2.7    60     5.2   822.3    0.00 
 325   14:40   0.29   64.1    32    3.4    31     5.6   822.5    0.00 
 325   14:50   0.16   64.0    32    2.2   359     4.6   822.6    0.00 
 325   15:00   0.08   62.7    34    2.7   343     5.2   822.6    0.00 
 325   15:10   0.08   61.9    35    2.4     3     3.4   822.6    0.00 
 325   15:20   0.15   61.6    37    2.2   352     3.2   822.6    0.00 
 325   15:30   0.19   63.0    36    2.2    14     3.1   822.6    0.00 
 325   15:40   0.18   63.8    34    2.7    32     4.2   822.6    0.00 
 325   15:50   0.13   62.9    36    3.4    39     4.7   822.6    0.00 
 325   16:00   0.07   61.3    38    3.6    38     5.0   822.6    0.00 
 325   16:10   0.04   59.5    41    3.5    43     4.6   822.4    0.00 
 325   16:20   0.02   58.4    42    1.8    50     2.3   822.4    0.00 
 325   16:30   0.01   57.5    44    1.2    82     2.4   822.4    0.00 
 325   16:40   0.00   54.8    51    1.3   187     2.6   822.4    0.00 
 325   16:50   0.00   51.2    57    3.0   134     4.4   822.3    0.00 
 325   17:00   0.00   49.1    61    3.8   112     4.8   822.3    0.00 
 325   17:10   0.00   48.3    63    3.6   136     5.0   822.5    0.00 
 325   17:20   0.00   46.0    68    5.6   158     6.2   822.5    0.00 
 325   17:30   0.00   45.0    70    5.1   158     5.8   822.4    0.00 
 325   17:40   0.00   44.1    72    5.2   161     5.7   822.3    0.00 
 325   17:50   0.00   43.5    73    5.2   188     6.5   822.5    0.00 
 325   18:00   0.00   44.1    74    6.4   225     7.7   822.7    0.00 
 325   18:10   0.00   45.2    70    6.4   193     7.7   822.7    0.00 
 325   18:20   0.00   45.3    69    5.3   177     6.4   822.7    0.00 
 325   18:30   0.00   44.3    71    5.7   170     6.6   822.8    0.00 
 325   18:40   0.00   43.1    74    5.9   166     7.6   822.8    0.00 
 325   18:50   0.00   43.2    74    6.1   163     8.0   822.9    0.00 
 325   19:00   0.00   42.7    74    6.7   208     9.2   823.1    0.00 
 325   19:10   0.00   41.4    77    4.8   198     5.7   823.2    0.00 
 325   19:20   0.00   40.8    77    5.3   184     6.3   823.2    0.00 
 325   19:30   0.00   40.4    78    5.6   200     7.5   823.2    0.00 
 325   19:40   0.00   39.7    79    5.3   197     7.1   823.3    0.00 
 325   19:50   0.00   39.7    80    6.5   211     8.6   823.3    0.00 
 325   20:00   0.00   40.2    79    6.6   214     9.0   823.3    0.00 
 325   20:10   0.00   39.7    80    7.0   217     8.6   823.4    0.00 
 325   20:20   0.00   40.1    79    8.7   221    10.2   823.5    0.00 
 325   20:30   0.00   40.8    77    8.3   220    10.7   823.5    0.00 
 325   20:40   0.00   41.0    76    8.5   220    10.8   823.6    0.00 
 325   20:50   0.00   41.1    75    9.1   218    12.1   823.6    0.00 
 325   21:00   0.00   40.9    75    9.9   229    12.0   823.7    0.00 
 325   21:10   0.00   40.2    76    8.5   223    10.4   823.7    0.00 
 325   21:20   0.00   41.3    74    8.8   220    12.3   823.8    0.00 
 325   21:30   0.00   40.5    74    9.7   229    13.0   823.8    0.00 
 325   21:40   0.00   39.6    76    9.8   228    12.3   823.8    0.00 
 325   21:50   0.00   39.6    76    7.4   203    11.5   823.9    0.00 
 325   22:00   0.00   39.6    76    7.7   205     9.6   823.8    0.00 
 325   22:10   0.00   40.1    75    8.4   216    11.2   823.8    0.00 
 325   22:20   0.00   40.3    74    9.4   225    12.4   823.8    0.00 
 325   22:30   0.00   39.3    76    9.0   222    10.8   823.9    0.00 
 325   22:40   0.00   38.2    78    9.3   228    11.7   823.9    0.00 
 325   22:50   0.00   38.2    78    9.5   232    11.0   823.9    0.00 
 325   23:00   0.00   38.3    78   10.0   234    12.1   823.9    0.00 
 325   23:10   0.00   38.4    77   11.6   235    13.9   823.9    0.00 
 325   23:20   0.00   38.4    77   11.5   235    14.4   823.9    0.00 
 325   23:30   0.00   38.5    78   11.9   234    14.8   824.0    0.00 
 325   23:40   0.00   39.1    76   13.0   237    15.2   823.9    0.00 
 325   23:50   0.00   39.4    75   11.0   238    13.9   823.9    0.00 
 326    0:00   0.00   38.8    76    8.1   223    10.4   823.9    0.00 
 326    0:10   0.00   38.6    77    8.6   230    11.7   823.9    0.00 
 326    0:20   0.00   38.4    78   10.2   233    12.5   823.9    0.00 
 326    0:30   0.00   38.3    78   10.3   234    12.6   823.9    0.00 
 326    0:40   0.00   38.3    78   10.8   234    14.1   823.9    0.00 
 326    0:50   0.00   37.8    78   11.0   234    13.9   823.8    0.00 
 326    1:00   0.00   37.9    79   12.2   234    14.6   823.8    0.00 
 326    1:10   0.00   38.2    78   11.3   230    14.2   823.8    0.00 
 326    1:20   0.00   38.1    78   10.7   232    13.2   823.8    0.00 
 326    1:30   0.00   38.2    78    9.9   237    12.5   823.9    0.00 
 326    1:40   0.00   37.6    80    8.5   234    10.4   823.8    0.00 
 326    1:50   0.00   37.3    80    8.2   229    10.0   823.8    0.00 
 326    2:00   0.00   37.0    81    7.3   232     8.7   823.9    0.00 
 326    2:10   0.00   37.3    81    7.5   229     9.1   823.9    0.00 
 326    2:20   0.00   37.3    80    7.1   227     8.6   823.8    0.00 
 326    2:30   0.00   37.0    81    7.3   228     8.9   823.8    0.00 
 326    2:40   0.00   36.3    82    7.9   224     9.3   823.8    0.00 
 326    2:50   0.00   37.2    81    9.9   229    12.6   823.8    0.00 
 326    3:00   0.00   36.3    82    9.7   230    11.9   823.8    0.00 
 326    3:10   0.00   36.6    82    9.2   226    13.1   823.7    0.00 
 326    3:20   0.00   35.6    83    7.4   227     9.1   823.8    0.00 
 326    3:30   0.00   36.5    82    6.4   226     8.9   823.9    0.00 
 326    3:40   0.00   36.8    81    7.4   240     9.1   824.0    0.00 
 326    3:50   0.00   37.5    80   10.4   248    14.3   824.1    0.00 
 326    4:00   0.00   38.6    77   12.2   250    14.6   824.1    0.00 
 326    4:10   0.00   38.4    77    9.7   239    13.2   824.1    0.00 
 326    4:20   0.00   38.2    77    7.6   217    10.4   824.1    0.00 
 326    4:30   0.00   36.5    80    7.3   202     8.8   824.0    0.00 
 326    4:40   0.00   34.8    82    6.7   199     8.6   824.0    0.00 
 326    4:50   0.00   31.8    85    5.7   172     6.9   823.9    0.00 
 326    5:00   0.00   32.3    89    5.1   174     6.4   823.9    0.00 
 326    5:10   0.00   33.9    88    5.4   220     8.1   823.9    0.00 
 326    5:20   0.00   35.6    84    7.0   214     8.8   824.0    0.00 
 326    5:30   0.00   35.4    82    6.0   215     8.3   824.0    0.00 
 326    5:40   0.00   34.5    84    8.4   239    11.5   824.0    0.00 
 326    5:50   0.00   34.3    84    4.4   206     7.1   824.0    0.00 
 326    6:00   0.00   34.4    85    3.7   189     5.5   823.9    0.00 
 326    6:10   0.00   35.0    84    7.0   203    10.9   824.0    0.00 
 326    6:20   0.00   36.5    82   11.2   222    14.2   823.9    0.00 
 326    6:30   0.00   36.9    80   10.9   225    12.9   823.9    0.00 
 326    6:40   0.00   36.9    80   12.4   231    16.3   824.0    0.00 
 326    6:50   0.01   34.9    82   11.8   237    15.6   824.0    0.00 
 326    7:00   0.01   34.1    85   12.6   239    15.0   824.0    0.00 
 326    7:10   0.01   34.6    84   12.7   236    15.6   824.1    0.00 
 326    7:20   0.02   34.7    84    9.6   231    13.1   824.4    0.00 
 326    7:30   0.08   35.2    83    7.8   220     9.7   824.4    0.00 
 326    7:40   0.12   37.1    79    7.5   227     9.5   824.5    0.00 
 326    7:50   0.15   39.1    75    5.2   206     7.7   824.7    0.00 
 326    8:00   0.17   41.2    71    4.3   189     7.6   824.9    0.00 
 326    8:10   0.20   43.4    67    4.6   217     8.6   824.9    0.00 
 326    8:20   0.23   45.0    64    5.6   198     7.8   824.8    0.00 
 326    8:30   0.26   46.4    63    5.2   211     6.7   824.9    0.00 
 326    8:40   0.28   48.1    61    5.3   208     6.9   824.9    0.00 
 326    8:50   0.31   50.5    57    4.3   203     5.9   824.8    0.00 
 326    9:00   0.34   53.0    52    3.4   162     4.9   824.9    0.00 
 326    9:10   0.36   54.4    50    3.0   122     4.6   824.9    0.00 
 326    9:20   0.39   53.9    51    2.7    93     3.9   825.0    0.00 

Return to Reese River Valley graphs page.


Western Regional Climate Center,wrcc@dri.edu